createdAt,value
2023-06-02T00:00:10.834Z,0.00
2023-06-02T00:01:10.807Z,0.00
2023-06-02T00:02:10.839Z,0.00
2023-06-02T00:03:10.850Z,0.00
2023-06-02T00:04:10.789Z,0.00
2023-06-02T00:05:10.856Z,0.00
2023-06-02T00:06:10.781Z,0.00
2023-06-02T00:07:10.754Z,0.00
2023-06-02T00:08:10.754Z,0.00
2023-06-02T00:09:10.753Z,0.00
2023-06-02T00:10:10.742Z,0.00
2023-06-02T00:11:10.757Z,0.00
2023-06-02T00:12:10.714Z,0.00
2023-06-02T00:13:10.716Z,0.00
2023-06-02T00:14:10.700Z,0.00
2023-06-02T00:15:10.729Z,0.00
2023-06-02T00:16:10.721Z,0.00
2023-06-02T00:17:10.705Z,0.00
2023-06-02T00:18:10.676Z,0.00
2023-06-02T00:19:11.407Z,0.00
2023-06-02T00:20:10.683Z,0.00
2023-06-02T00:21:10.640Z,0.00
2023-06-02T00:22:10.632Z,0.00
2023-06-02T00:23:10.628Z,0.00
2023-06-02T00:24:10.619Z,0.00
2023-06-02T00:25:10.603Z,0.00
2023-06-02T00:26:10.628Z,0.00
2023-06-02T00:27:10.583Z,0.00
2023-06-02T00:28:10.574Z,0.00
2023-06-02T00:29:10.561Z,0.00
2023-06-02T00:30:10.565Z,0.00
2023-06-02T00:31:10.575Z,0.00
2023-06-02T00:32:10.578Z,0.00
2023-06-02T00:33:10.537Z,0.00
2023-06-02T00:34:10.544Z,0.00
2023-06-02T00:35:10.529Z,0.00
2023-06-02T00:36:10.945Z,0.00
2023-06-02T00:37:10.516Z,0.00
2023-06-02T00:38:10.547Z,0.00
2023-06-02T00:39:10.511Z,0.00
2023-06-02T00:40:10.486Z,0.00
2023-06-02T00:41:10.471Z,0.00
2023-06-02T00:42:10.471Z,0.00
2023-06-02T00:43:10.486Z,0.00
2023-06-02T00:44:10.501Z,0.00
2023-06-02T00:45:10.446Z,0.00
2023-06-02T00:46:10.639Z,0.00
2023-06-02T00:47:10.425Z,0.00
2023-06-02T00:48:10.428Z,0.00
2023-06-02T00:49:10.413Z,0.00
2023-06-02T00:50:10.465Z,0.00
2023-06-02T00:51:10.410Z,0.00
2023-06-02T00:52:10.393Z,0.00
2023-06-02T00:53:10.385Z,0.00
2023-06-02T00:54:10.385Z,0.00
2023-06-02T00:55:10.370Z,0.00
2023-06-02T00:56:10.384Z,0.00
2023-06-02T00:57:10.389Z,0.00
2023-06-02T00:58:10.401Z,0.00
2023-06-02T00:59:10.331Z,0.00
2023-06-02T01:00:10.342Z,0.00
2023-06-02T01:01:10.444Z,0.00
2023-06-02T01:02:10.331Z,0.00
2023-06-02T01:03:10.410Z,0.00
2023-06-02T01:04:10.309Z,0.00
2023-06-02T01:05:10.276Z,0.00
2023-06-02T01:06:10.287Z,0.00
2023-06-02T01:07:10.277Z,0.00
2023-06-02T01:08:10.260Z,0.00
2023-06-02T01:09:10.291Z,0.00
2023-06-02T01:10:10.259Z,0.00
2023-06-02T01:11:10.245Z,0.00
2023-06-02T01:12:10.340Z,0.00
2023-06-02T01:13:10.236Z,0.00
2023-06-02T01:14:10.232Z,0.00
2023-06-02T01:15:10.314Z,0.00
2023-06-02T01:16:10.254Z,0.00
2023-06-02T01:17:10.241Z,0.00
2023-06-02T01:18:10.203Z,0.00
2023-06-02T01:19:10.186Z,0.00
2023-06-02T01:20:10.181Z,0.00
2023-06-02T01:21:10.156Z,0.00
2023-06-02T01:22:10.237Z,0.00
2023-06-02T01:23:10.167Z,0.00
2023-06-02T01:24:10.190Z,0.00
2023-06-02T01:25:10.125Z,0.00
2023-06-02T01:26:10.572Z,0.00
2023-06-02T01:27:10.115Z,0.00
2023-06-02T01:28:10.117Z,0.00
2023-06-02T01:29:10.121Z,0.00
2023-06-02T01:30:10.144Z,0.00
2023-06-02T01:31:10.088Z,0.00
2023-06-02T01:32:10.159Z,0.00
2023-06-02T01:33:10.086Z,0.00
2023-06-02T01:34:17.603Z,0.00
2023-06-02T01:35:10.073Z,0.00
2023-06-02T01:36:10.054Z,0.00
2023-06-02T01:37:10.046Z,0.00
2023-06-02T01:38:10.033Z,0.00
2023-06-02T01:39:10.038Z,0.00
2023-06-02T01:40:10.030Z,0.00
2023-06-02T01:41:10.101Z,0.00
2023-06-02T01:42:10.034Z,0.00
2023-06-02T01:43:10.035Z,0.00
2023-06-02T01:44:10.050Z,0.00
2023-06-02T01:45:09.997Z,0.00
2023-06-02T01:46:09.993Z,0.00
2023-06-02T01:47:10.021Z,0.00
2023-06-02T01:48:09.953Z,0.00
2023-06-02T01:49:09.944Z,0.00
2023-06-02T01:50:09.941Z,0.00
2023-06-02T01:51:09.938Z,0.00
2023-06-02T01:52:10.008Z,0.00
2023-06-02T01:53:09.964Z,0.00
2023-06-02T01:54:09.917Z,0.00
2023-06-02T01:55:09.923Z,0.00
2023-06-02T01:56:09.883Z,0.00
2023-06-02T01:57:09.895Z,0.00
2023-06-02T01:58:09.928Z,0.00
2023-06-02T01:59:09.886Z,0.00
2023-06-02T02:00:09.877Z,0.00
2023-06-02T02:01:09.852Z,0.00
2023-06-02T02:02:09.861Z,0.00
2023-06-02T02:03:09.955Z,0.00
2023-06-02T02:04:09.866Z,0.00
2023-06-02T02:05:09.829Z,0.00
2023-06-02T02:06:09.878Z,0.00
2023-06-02T02:07:09.805Z,0.00
2023-06-02T02:08:09.803Z,0.00
2023-06-02T02:09:09.797Z,0.00
2023-06-02T02:10:09.836Z,0.00
2023-06-02T02:11:09.782Z,0.00
2023-06-02T02:12:09.777Z,0.00
2023-06-02T02:13:09.774Z,0.00
2023-06-02T02:14:09.768Z,0.00
2023-06-02T02:15:09.812Z,0.00
2023-06-02T02:16:09.857Z,0.00
2023-06-02T02:17:10.442Z,0.00
2023-06-02T02:18:09.757Z,0.00
2023-06-02T02:19:09.730Z,0.00
2023-06-02T02:20:09.751Z,0.00
2023-06-02T02:21:09.777Z,0.00
2023-06-02T02:22:09.733Z,0.00
2023-06-02T02:23:09.771Z,0.00
2023-06-02T02:24:09.791Z,0.00
2023-06-02T02:25:09.706Z,0.00
2023-06-02T02:26:09.684Z,0.00
2023-06-02T02:27:09.679Z,0.00
2023-06-02T02:28:09.687Z,0.00
2023-06-02T02:29:09.624Z,0.00
2023-06-02T02:30:09.630Z,0.00
2023-06-02T02:31:09.778Z,0.00
2023-06-02T02:32:09.615Z,1.00
2023-06-02T02:33:09.660Z,1.00
2023-06-02T02:34:09.605Z,1.00
2023-06-02T02:35:09.577Z,1.00
2023-06-02T02:36:09.671Z,1.00
2023-06-02T02:37:09.561Z,0.00
2023-06-02T02:38:09.636Z,0.00
2023-06-02T02:39:09.575Z,1.00
2023-06-02T02:40:10.458Z,1.00
2023-06-02T02:41:09.530Z,1.00
2023-06-02T02:42:09.579Z,1.00
2023-06-02T02:43:10.385Z,2.00
2023-06-02T02:44:10.457Z,1.00
2023-06-02T02:45:09.722Z,2.00
2023-06-02T02:46:10.490Z,2.00
2023-06-02T02:47:09.533Z,2.00
2023-06-02T02:48:09.540Z,2.00
2023-06-02T02:49:09.508Z,2.00
2023-06-02T02:50:09.501Z,3.00
2023-06-02T02:51:09.512Z,5.00
2023-06-02T02:52:09.465Z,6.00
2023-06-02T02:53:09.476Z,5.00
2023-06-02T02:54:09.466Z,3.00
2023-06-02T02:55:09.534Z,7.00
2023-06-02T02:56:09.433Z,10.00
2023-06-02T02:57:09.417Z,8.00
2023-06-02T02:58:09.496Z,10.00
2023-06-02T02:59:09.546Z,12.00
2023-06-02T03:00:09.393Z,12.00
2023-06-02T03:01:09.445Z,14.00
2023-06-02T03:02:09.368Z,17.00
2023-06-02T03:03:09.356Z,16.00
2023-06-02T03:04:09.476Z,18.00
2023-06-02T03:05:09.385Z,18.00
2023-06-02T03:06:09.354Z,19.00
2023-06-02T03:07:10.993Z,21.00
2023-06-02T03:08:09.317Z,21.00
2023-06-02T03:09:09.334Z,24.00
2023-06-02T03:10:09.347Z,27.00
2023-06-02T03:11:09.303Z,30.00
2023-06-02T03:12:09.352Z,33.00
2023-06-02T03:13:09.316Z,38.00
2023-06-02T03:14:09.270Z,39.00
2023-06-02T03:15:09.263Z,43.00
2023-06-02T03:16:09.334Z,44.00
2023-06-02T03:17:09.422Z,48.00
2023-06-02T03:18:09.239Z,53.00
2023-06-02T03:19:09.264Z,59.00
2023-06-02T03:20:09.232Z,61.00
2023-06-02T03:21:09.225Z,62.00
2023-06-02T03:22:09.397Z,68.00
2023-06-02T03:23:09.222Z,72.00
2023-06-02T03:24:09.180Z,78.00
2023-06-02T03:25:09.194Z,80.00
2023-06-02T03:26:09.172Z,86.00
2023-06-02T03:27:09.172Z,91.00
2023-06-02T03:28:09.223Z,92.00
2023-06-02T03:29:09.161Z,97.00
2023-06-02T03:30:09.130Z,106.00
2023-06-02T03:31:09.226Z,112.00
2023-06-02T03:32:09.155Z,117.00
2023-06-02T03:33:09.215Z,120.00
2023-06-02T03:34:09.197Z,125.00
2023-06-02T03:35:09.107Z,128.00
2023-06-02T03:36:09.139Z,131.00
2023-06-02T03:37:09.121Z,137.00
2023-06-02T03:38:09.100Z,141.00
2023-06-02T03:39:09.137Z,146.00
2023-06-02T03:40:09.069Z,149.00
2023-06-02T03:41:09.070Z,155.00
2023-06-02T03:42:09.132Z,159.00
2023-06-02T03:43:09.100Z,161.00
2023-06-02T03:44:09.037Z,168.00
2023-06-02T03:45:09.031Z,174.00
2023-06-02T03:46:09.053Z,187.00
2023-06-02T03:47:09.013Z,193.00
2023-06-02T03:48:09.035Z,205.00
2023-06-02T03:49:09.006Z,213.00
2023-06-02T03:50:09.028Z,223.00
2023-06-02T03:51:10.272Z,234.00
2023-06-02T03:52:08.971Z,244.00
2023-06-02T03:53:08.976Z,256.00
2023-06-02T03:54:08.974Z,264.00
2023-06-02T03:55:09.015Z,274.00
2023-06-02T03:56:08.962Z,285.00
2023-06-02T03:57:08.955Z,292.00
2023-06-02T03:58:08.930Z,302.00
2023-06-02T03:59:08.967Z,311.00
2023-06-02T04:00:08.959Z,317.00
2023-06-02T04:01:08.912Z,331.00
2023-06-02T04:02:08.950Z,343.00
2023-06-02T04:03:08.958Z,352.00
2023-06-02T04:04:08.912Z,362.00
2023-06-02T04:05:08.958Z,375.00
2023-06-02T04:06:08.916Z,391.00
2023-06-02T04:07:08.861Z,399.00
2023-06-02T04:08:08.847Z,407.00
2023-06-02T04:09:08.865Z,415.00
2023-06-02T04:10:08.827Z,428.00
2023-06-02T04:11:08.830Z,444.00
2023-06-02T04:12:08.840Z,452.00
2023-06-02T04:13:08.822Z,463.00
2023-06-02T04:14:08.801Z,479.00
2023-06-02T04:15:08.811Z,503.00
2023-06-02T04:16:09.027Z,535.00
2023-06-02T04:17:08.787Z,567.00
2023-06-02T04:18:08.819Z,598.00
2023-06-02T04:19:08.765Z,620.00
2023-06-02T04:20:08.750Z,636.00
2023-06-02T04:21:08.762Z,645.00
2023-06-02T04:22:08.754Z,643.00
2023-06-02T04:23:08.753Z,648.00
2023-06-02T04:24:08.729Z,670.00
2023-06-02T04:25:08.732Z,688.00
2023-06-02T04:26:10.409Z,699.00
2023-06-02T04:27:08.775Z,702.00
2023-06-02T04:28:08.695Z,713.00
2023-06-02T04:29:09.019Z,730.00
2023-06-02T04:30:08.720Z,736.00
2023-06-02T04:31:08.701Z,736.00
2023-06-02T04:32:08.758Z,745.00
2023-06-02T04:33:08.676Z,762.00
2023-06-02T04:34:08.669Z,777.00
2023-06-02T04:35:08.637Z,791.00
2023-06-02T04:36:08.679Z,796.00
2023-06-02T04:37:08.635Z,799.00
2023-06-02T04:38:08.597Z,807.00
2023-06-02T04:39:08.600Z,818.00
2023-06-02T04:40:08.585Z,828.00
2023-06-02T04:41:08.641Z,843.00
2023-06-02T04:42:08.565Z,855.00
2023-06-02T04:43:08.573Z,870.00
2023-06-02T04:44:08.563Z,880.00
2023-06-02T04:45:08.566Z,890.00
2023-06-02T04:46:08.581Z,890.00
2023-06-02T04:47:08.578Z,895.00
2023-06-02T04:48:08.543Z,903.00
2023-06-02T04:49:08.530Z,905.00
2023-06-02T04:50:08.542Z,907.00
2023-06-02T04:51:08.517Z,910.00
2023-06-02T04:52:08.485Z,914.00
2023-06-02T04:53:08.568Z,928.00
2023-06-02T04:54:08.575Z,937.00
2023-06-02T04:55:08.507Z,945.00
2023-06-02T04:56:08.489Z,941.00
2023-06-02T04:57:08.462Z,940.00
2023-06-02T04:58:08.467Z,950.00
2023-06-02T04:59:08.561Z,963.00
2023-06-02T05:00:08.461Z,979.00
2023-06-02T05:01:08.435Z,1001.00
2023-06-02T05:02:08.634Z,1020.00
2023-06-02T05:03:08.486Z,1032.00
2023-06-02T05:04:08.435Z,1049.00
2023-06-02T05:05:08.488Z,1050.00
2023-06-02T05:06:08.609Z,1052.00
2023-06-02T05:07:08.414Z,1059.00
2023-06-02T05:08:08.439Z,1076.00
2023-06-02T05:09:08.399Z,1091.00
2023-06-02T05:10:08.347Z,1099.00
2023-06-02T05:11:09.041Z,1112.00
2023-06-02T05:12:08.324Z,1131.00
2023-06-02T05:13:08.350Z,1168.00
2023-06-02T05:14:08.320Z,1200.00
2023-06-02T05:15:08.318Z,1244.00
2023-06-02T05:16:08.727Z,1286.00
2023-06-02T05:17:08.858Z,1319.00
2023-06-02T05:18:08.323Z,1342.00
2023-06-02T05:19:08.278Z,1374.00
2023-06-02T05:20:08.465Z,1415.00
2023-06-02T05:21:08.284Z,1436.00
2023-06-02T05:22:08.250Z,1459.00
2023-06-02T05:23:08.293Z,1515.00
2023-06-02T05:24:08.565Z,1582.00
2023-06-02T05:25:10.938Z,1612.00
2023-06-02T05:26:08.229Z,1646.00
2023-06-02T05:27:08.219Z,1668.00
2023-06-02T05:28:08.197Z,1711.00
2023-06-02T05:29:08.276Z,1750.00
2023-06-02T05:30:08.182Z,1773.00
2023-06-02T05:31:08.212Z,1761.00
2023-06-02T05:32:08.189Z,1766.00
2023-06-02T05:33:08.162Z,1791.00
2023-06-02T05:34:08.217Z,1783.00
2023-06-02T05:35:08.249Z,1755.00
2023-06-02T05:36:08.150Z,1725.00
2023-06-02T05:37:08.129Z,1709.00
2023-06-02T05:38:08.107Z,1712.00
2023-06-02T05:39:08.153Z,1721.00
2023-06-02T05:40:08.187Z,1722.00
2023-06-02T05:41:08.141Z,1719.00
2023-06-02T05:42:08.100Z,1723.00
2023-06-02T05:43:08.092Z,1753.00
2023-06-02T05:44:08.085Z,1778.00
2023-06-02T05:45:08.072Z,1808.00
2023-06-02T05:46:08.287Z,1842.00
2023-06-02T05:47:08.104Z,1854.00
2023-06-02T05:48:08.075Z,1863.00
2023-06-02T05:49:08.050Z,1872.00
2023-06-02T05:50:09.296Z,1890.00
2023-06-02T05:51:08.012Z,1899.00
2023-06-02T05:52:07.991Z,1914.00
2023-06-02T05:53:08.008Z,1939.00
2023-06-02T05:54:07.978Z,1964.00
2023-06-02T05:55:08.022Z,1998.00
2023-06-02T05:56:07.962Z,2010.00
2023-06-02T05:57:07.964Z,2034.00
2023-06-02T05:58:07.990Z,2063.00
2023-06-02T05:59:07.950Z,2094.00
2023-06-02T06:00:08.003Z,2126.00
2023-06-02T06:01:07.943Z,2162.00
2023-06-02T06:02:07.933Z,2210.00
2023-06-02T06:03:08.042Z,2230.00
2023-06-02T06:04:07.959Z,2237.00
2023-06-02T06:05:07.901Z,2249.00
2023-06-02T06:06:07.986Z,2310.00
2023-06-02T06:07:07.897Z,2325.00
2023-06-02T06:08:07.878Z,2322.00
2023-06-02T06:09:07.878Z,2335.00
2023-06-02T06:10:07.855Z,2363.00
2023-06-02T06:11:07.866Z,2404.00
2023-06-02T06:12:07.881Z,2419.00
2023-06-02T06:13:07.871Z,2449.00
2023-06-02T06:14:07.839Z,2491.00
2023-06-02T06:15:07.830Z,2525.00
2023-06-02T06:16:08.556Z,2572.00
2023-06-02T06:17:07.839Z,2614.00
2023-06-02T06:18:07.865Z,2646.00
2023-06-02T06:19:07.823Z,2694.00
2023-06-02T06:20:07.784Z,2747.00
2023-06-02T06:21:07.796Z,2827.00
2023-06-02T06:22:08.158Z,2889.00
2023-06-02T06:23:07.781Z,2988.00
2023-06-02T06:24:07.778Z,3090.00
2023-06-02T06:25:07.745Z,3209.00
2023-06-02T06:26:07.722Z,3460.00
2023-06-02T06:27:09.626Z,3513.00
2023-06-02T06:28:07.802Z,3599.00
2023-06-02T06:29:07.713Z,3802.00
2023-06-02T06:30:07.784Z,3982.00
2023-06-02T06:31:07.737Z,4027.00
2023-06-02T06:32:07.765Z,4017.00
2023-06-02T06:33:07.696Z,4189.00
2023-06-02T06:34:07.800Z,4335.00
2023-06-02T06:35:07.740Z,4461.00
2023-06-02T06:36:07.649Z,4504.00
2023-06-02T06:37:07.664Z,4630.00
2023-06-02T06:38:07.639Z,4696.00
2023-06-02T06:39:07.649Z,4770.00
2023-06-02T06:40:07.619Z,4917.00
2023-06-02T06:41:07.674Z,4906.00
2023-06-02T06:42:07.597Z,4991.00
2023-06-02T06:43:15.541Z,4983.00
2023-06-02T06:44:08.584Z,5237.00
2023-06-02T06:45:07.597Z,6215.00
2023-06-02T06:46:07.565Z,5485.00
2023-06-02T06:47:07.597Z,5495.00
2023-06-02T06:48:07.664Z,5591.00
2023-06-02T06:49:07.555Z,5656.00
2023-06-02T06:50:07.559Z,5428.00
2023-06-02T06:51:07.634Z,5384.00
2023-06-02T06:52:07.572Z,5454.00
2023-06-02T06:53:07.530Z,5504.00
2023-06-02T06:54:08.562Z,5680.00
2023-06-02T06:55:07.506Z,5745.00
2023-06-02T06:56:07.608Z,5826.00
2023-06-02T06:57:07.507Z,5757.00
2023-06-02T06:58:07.492Z,5949.00
2023-06-02T06:59:07.467Z,5957.00
2023-06-02T07:00:07.581Z,5960.00
2023-06-02T07:01:07.455Z,6061.00
2023-06-02T07:02:07.570Z,6243.00
2023-06-02T07:03:07.571Z,6317.00
2023-06-02T07:04:07.527Z,6484.00
2023-06-02T07:05:07.434Z,7950.00
2023-06-02T07:06:07.407Z,7099.00
2023-06-02T07:07:07.418Z,7355.00
2023-06-02T07:08:07.399Z,7325.00
2023-06-02T07:09:07.503Z,7461.00
2023-06-02T07:10:07.423Z,7582.00
2023-06-02T07:11:07.359Z,7437.00
2023-06-02T07:12:07.370Z,8676.00
2023-06-02T07:13:07.570Z,7687.00
2023-06-02T07:14:16.101Z,7794.00
2023-06-02T07:15:08.362Z,7520.00
2023-06-02T07:16:07.368Z,8746.00
2023-06-02T07:17:07.334Z,7857.00
2023-06-02T07:18:07.379Z,7850.00
2023-06-02T07:19:07.295Z,7777.00
2023-06-02T07:20:07.309Z,7867.00
2023-06-02T07:21:07.344Z,7876.00
2023-06-02T07:22:07.415Z,8243.00
2023-06-02T07:23:07.288Z,7657.00
2023-06-02T07:24:07.291Z,7477.00
2023-06-02T07:25:07.264Z,7629.00
2023-06-02T07:26:07.274Z,7398.00
2023-06-02T07:27:07.264Z,7301.00
2023-06-02T07:28:07.235Z,7296.00
2023-06-02T07:29:07.220Z,7401.00
2023-06-02T07:30:07.307Z,7414.00
2023-06-02T07:31:10.460Z,7505.00
2023-06-02T07:32:07.326Z,7585.00
2023-06-02T07:33:07.218Z,7607.00
2023-06-02T07:34:07.206Z,7700.00
2023-06-02T07:35:07.266Z,7953.00
2023-06-02T07:36:07.203Z,7877.00
2023-06-02T07:37:07.177Z,7741.00
2023-06-02T07:38:07.220Z,7600.00
2023-06-02T07:39:07.147Z,7690.00
2023-06-02T07:40:07.150Z,7649.00
2023-06-02T07:41:07.140Z,7731.00
2023-06-02T07:42:07.155Z,8215.00
2023-06-02T07:43:07.103Z,8363.00
2023-06-02T07:44:07.162Z,8358.00
2023-06-02T07:45:07.088Z,8396.00
2023-06-02T07:46:07.284Z,8484.00
2023-06-02T07:47:07.130Z,8422.00
2023-06-02T07:48:07.165Z,8198.00
2023-06-02T07:49:07.055Z,8222.00
2023-06-02T07:50:07.074Z,8947.00
2023-06-02T07:51:07.045Z,8594.00
2023-06-02T07:52:07.071Z,8093.00
2023-06-02T07:53:16.059Z,8091.00
2023-06-02T07:54:07.038Z,8705.00
2023-06-02T07:55:07.640Z,9361.00
2023-06-02T07:56:07.335Z,8839.00
2023-06-02T07:57:07.008Z,8465.00
2023-06-02T07:58:07.006Z,7527.00
2023-06-02T07:59:06.980Z,8262.00
2023-06-02T08:00:06.998Z,8417.00
2023-06-02T08:01:07.179Z,7490.00
2023-06-02T08:02:06.985Z,7183.00
2023-06-02T08:03:07.134Z,7828.00
2023-06-02T08:04:07.118Z,7181.00
2023-06-02T08:05:06.967Z,7135.00
2023-06-02T08:06:06.929Z,7708.00
2023-06-02T08:07:06.902Z,7785.00
2023-06-02T08:08:07.986Z,7729.00
2023-06-02T08:09:06.933Z,7608.00
2023-06-02T08:10:06.995Z,7477.00
2023-06-02T08:11:06.856Z,7627.00
2023-06-02T08:12:06.877Z,7674.00
2023-06-02T08:13:06.865Z,7540.00
2023-06-02T08:14:06.850Z,7586.00
2023-06-02T08:15:06.844Z,7581.00
2023-06-02T08:17:06.833Z,7894.00
2023-06-02T08:18:06.927Z,7706.00
2023-06-02T08:19:06.923Z,7683.00
2023-06-02T08:20:06.785Z,6273.00
2023-06-02T08:21:06.839Z,6983.00
2023-06-02T08:22:06.777Z,8074.00
2023-06-02T08:23:06.764Z,8231.00
2023-06-02T08:24:06.750Z,8244.00
2023-06-02T08:25:06.753Z,8083.00
2023-06-02T08:26:06.741Z,7145.00
2023-06-02T08:27:06.718Z,7900.00
2023-06-02T08:28:06.816Z,8527.00
2023-06-02T08:29:06.703Z,7557.00
2023-06-02T08:30:06.726Z,8080.00
2023-06-02T08:31:06.719Z,7136.00
2023-06-02T08:32:08.170Z,6934.00
2023-06-02T08:33:06.716Z,7156.00
2023-06-02T08:34:06.668Z,8534.00
2023-06-02T08:35:06.702Z,7968.00
2023-06-02T08:36:06.822Z,7828.00
2023-06-02T08:37:06.632Z,7490.00
2023-06-02T08:38:06.647Z,7765.00
2023-06-02T08:39:06.609Z,8243.00
2023-06-02T08:40:06.646Z,8435.00
2023-06-02T08:41:06.757Z,8241.00
2023-06-02T08:42:06.628Z,8369.00
2023-06-02T08:43:06.666Z,9555.00
2023-06-02T08:44:06.599Z,9558.00
2023-06-02T08:45:06.566Z,8561.00
2023-06-02T08:46:06.603Z,9118.00
2023-06-02T08:47:06.554Z,8680.00
2023-06-02T08:48:06.685Z,8729.00
2023-06-02T08:49:06.527Z,8885.00
2023-06-02T08:50:06.575Z,8845.00
2023-06-02T08:51:06.516Z,8396.00
2023-06-02T08:52:06.509Z,8893.00
2023-06-02T08:53:06.498Z,8240.00
2023-06-02T08:54:06.499Z,7905.00
2023-06-02T08:55:06.484Z,7632.00
2023-06-02T08:56:06.741Z,8344.00
2023-06-02T08:57:06.485Z,8227.00
2023-06-02T08:58:06.466Z,8078.00
2023-06-02T08:59:06.449Z,7717.00
2023-06-02T09:00:06.460Z,7805.00
2023-06-02T09:01:06.436Z,7994.00
2023-06-02T09:02:06.479Z,7837.00
2023-06-02T09:03:06.542Z,7648.00
2023-06-02T09:04:08.305Z,6592.00
2023-06-02T09:05:06.518Z,7128.00
2023-06-02T09:06:06.713Z,7256.00
2023-06-02T09:07:06.390Z,7157.00
2023-06-02T09:08:06.438Z,7110.00
2023-06-02T09:09:06.387Z,7095.00
2023-06-02T09:10:06.478Z,7169.00
2023-06-02T09:11:06.388Z,7285.00
2023-06-02T09:12:06.373Z,7329.00
2023-06-02T09:13:06.348Z,7345.00
2023-06-02T09:14:06.345Z,7304.00
2023-06-02T09:15:07.037Z,7242.00
2023-06-02T09:16:06.497Z,7212.00
2023-06-02T09:17:06.328Z,7155.00
2023-06-02T09:18:06.357Z,7151.00
2023-06-02T09:19:06.324Z,7202.00
2023-06-02T09:20:06.288Z,7197.00
2023-06-02T09:21:06.546Z,7282.00
2023-06-02T09:22:06.430Z,7243.00
2023-06-02T09:23:06.257Z,7074.00
2023-06-02T09:25:06.276Z,6900.00
2023-06-02T09:26:10.027Z,6845.00
2023-06-02T09:27:07.221Z,6849.00
2023-06-02T09:28:06.223Z,6812.00
2023-06-02T09:29:06.203Z,6807.00
2023-06-02T09:30:06.250Z,6817.00
2023-06-02T09:31:06.551Z,6829.00
2023-06-02T09:32:06.392Z,6805.00
2023-06-02T09:33:06.235Z,6802.00
2023-06-02T09:34:06.175Z,6774.00
2023-06-02T09:35:06.171Z,6736.00
2023-06-02T09:36:06.437Z,6734.00
2023-06-02T09:37:06.133Z,6730.00
2023-06-02T09:38:06.138Z,6721.00
2023-06-02T09:39:06.110Z,6696.00
2023-06-02T09:40:06.122Z,6697.00
2023-06-02T09:41:06.100Z,6703.00
2023-06-02T09:42:06.155Z,6693.00
2023-06-02T09:43:06.172Z,6711.00
2023-06-02T09:44:06.095Z,6719.00
2023-06-02T09:45:06.085Z,6695.00
2023-06-02T09:46:06.292Z,6695.00
2023-06-02T09:47:06.195Z,6675.00
2023-06-02T09:48:06.162Z,6660.00
2023-06-02T09:49:06.171Z,6670.00
2023-06-02T09:50:06.048Z,6635.00
2023-06-02T09:51:06.028Z,6638.00
2023-06-02T09:52:06.034Z,6660.00
2023-06-02T09:53:06.049Z,6623.00
2023-06-02T09:54:06.012Z,6596.00
2023-06-02T09:55:05.990Z,6610.00
2023-06-02T09:56:06.173Z,6589.00
2023-06-02T09:57:06.067Z,6567.00
2023-06-02T09:58:06.252Z,6554.00
2023-06-02T09:59:06.005Z,6561.00
2023-06-02T10:00:06.063Z,6565.00
2023-06-02T10:01:06.163Z,6585.00
2023-06-02T10:02:05.961Z,6575.00
2023-06-02T10:03:06.225Z,6575.00
2023-06-02T10:04:06.106Z,6570.00
2023-06-02T10:05:06.182Z,6576.00
2023-06-02T10:06:06.045Z,6567.00
2023-06-02T10:07:05.889Z,6562.00
2023-06-02T10:08:06.006Z,6571.00
2023-06-02T10:09:05.895Z,6551.00
2023-06-02T10:10:05.872Z,6566.00
2023-06-02T10:11:06.003Z,6589.00
2023-06-02T10:12:05.854Z,6600.00
2023-06-02T10:13:05.844Z,6603.00
2023-06-02T10:14:05.852Z,6607.00
2023-06-02T10:15:05.837Z,6638.00
2023-06-02T10:16:05.856Z,6587.00
2023-06-02T10:17:05.860Z,6573.00
2023-06-02T10:18:05.863Z,6546.00
2023-06-02T10:19:05.782Z,6520.00
2023-06-02T10:20:05.897Z,6488.00
2023-06-02T10:21:06.056Z,6485.00
2023-06-02T10:22:05.881Z,6438.00
2023-06-02T10:23:05.882Z,6455.00
2023-06-02T10:24:05.893Z,6424.00
2023-06-02T10:25:05.754Z,6392.00
2023-06-02T10:26:05.768Z,6470.00
2023-06-02T10:27:05.772Z,6449.00
2023-06-02T10:28:05.742Z,6484.00
2023-06-02T10:29:05.724Z,6489.00
2023-06-02T10:30:05.719Z,6481.00
2023-06-02T10:31:05.912Z,6474.00
2023-06-02T10:32:05.689Z,6485.00
2023-06-02T10:33:05.718Z,6467.00
2023-06-02T10:34:05.663Z,6457.00
2023-06-02T10:35:05.649Z,6438.00
2023-06-02T10:36:05.642Z,6418.00
2023-06-02T10:37:05.651Z,6402.00
2023-06-02T10:38:05.641Z,6394.00
2023-06-02T10:39:05.639Z,6389.00
2023-06-02T10:40:05.629Z,6397.00
2023-06-02T10:41:05.815Z,6395.00
2023-06-02T10:42:05.648Z,6392.00
2023-06-02T10:43:05.595Z,6386.00
2023-06-02T10:44:05.613Z,6378.00
2023-06-02T10:45:05.634Z,6378.00
2023-06-02T10:46:05.591Z,6386.00
2023-06-02T10:47:05.591Z,6378.00
2023-06-02T10:48:05.595Z,6389.00
2023-06-02T10:49:05.549Z,6369.00
2023-06-02T10:50:12.341Z,6348.00
2023-06-02T10:51:06.717Z,6344.00
2023-06-02T10:52:05.536Z,6345.00
2023-06-02T10:53:05.529Z,6328.00
2023-06-02T10:54:05.555Z,6326.00
2023-06-02T10:55:05.537Z,6321.00
2023-06-02T10:56:05.504Z,6344.00
2023-06-02T10:57:05.505Z,6311.00
2023-06-02T10:58:05.474Z,6304.00
2023-06-02T10:59:05.465Z,6319.00
2023-06-02T11:00:05.462Z,6311.00
2023-06-02T11:01:05.778Z,6296.00
2023-06-02T11:02:05.448Z,6307.00
2023-06-02T11:03:05.516Z,6292.00
2023-06-02T11:04:05.545Z,6266.00
2023-06-02T11:05:05.402Z,6269.00
2023-06-02T11:06:05.423Z,6273.00
2023-06-02T11:07:05.413Z,6262.00
2023-06-02T11:08:05.398Z,6252.00
2023-06-02T11:09:05.379Z,6250.00
2023-06-02T11:10:05.373Z,6248.00
2023-06-02T11:11:05.360Z,6257.00
2023-06-02T11:12:05.404Z,6258.00
2023-06-02T11:13:05.380Z,6272.00
2023-06-02T11:14:05.364Z,6256.00
2023-06-02T11:15:05.481Z,6233.00
2023-06-02T11:16:05.396Z,6232.00
2023-06-02T11:17:05.357Z,6231.00
2023-06-02T11:18:05.444Z,6229.00
2023-06-02T11:19:05.284Z,6229.00
2023-06-02T11:20:05.392Z,6227.00
2023-06-02T11:21:05.476Z,6222.00
2023-06-02T11:22:05.341Z,6220.00
2023-06-02T11:23:05.295Z,6209.00
2023-06-02T11:24:05.286Z,6207.00
2023-06-02T11:25:05.271Z,6195.00
2023-06-02T11:26:05.244Z,6194.00
2023-06-02T11:27:05.240Z,6188.00
2023-06-02T11:28:05.218Z,6193.00
2023-06-02T11:29:05.256Z,6188.00
2023-06-02T11:30:05.249Z,6180.00
2023-06-02T11:31:05.492Z,6166.00
2023-06-02T11:32:05.194Z,6172.00
2023-06-02T11:33:05.417Z,6172.00
2023-06-02T11:34:05.311Z,6166.00
2023-06-02T11:35:05.216Z,6140.00
2023-06-02T11:36:05.205Z,6147.00
2023-06-02T11:37:05.160Z,6148.00
2023-06-02T11:38:05.188Z,6167.00
2023-06-02T11:39:05.167Z,6141.00
2023-06-02T11:40:05.134Z,6139.00
2023-06-02T11:41:05.860Z,6132.00
2023-06-02T11:42:05.143Z,6150.00
2023-06-02T11:43:05.112Z,6138.00
2023-06-02T11:44:05.139Z,6123.00
2023-06-02T11:45:06.928Z,6123.00
2023-06-02T11:46:05.076Z,6134.00
2023-06-02T11:47:05.078Z,6113.00
2023-06-02T11:48:05.201Z,6105.00
2023-06-02T11:49:05.135Z,6088.00
2023-06-02T11:50:05.064Z,6066.00
2023-06-02T11:51:05.041Z,6067.00
2023-06-02T11:52:05.080Z,6046.00
2023-06-02T11:53:05.030Z,6010.00
2023-06-02T11:54:05.040Z,6004.00
2023-06-02T11:55:05.120Z,5968.00
2023-06-02T11:56:05.642Z,5955.00
2023-06-02T11:57:05.011Z,5932.00
2023-06-02T11:58:04.975Z,5924.00
2023-06-02T11:59:04.962Z,5908.00
2023-06-02T12:00:05.004Z,5882.00
2023-06-02T12:01:04.966Z,5879.00
2023-06-02T12:02:04.948Z,5864.00
2023-06-02T12:03:05.045Z,5856.00
2023-06-02T12:04:04.997Z,5846.00
2023-06-02T12:05:04.951Z,5829.00
2023-06-02T12:06:04.985Z,5816.00
2023-06-02T12:07:05.050Z,5820.00
2023-06-02T12:08:04.893Z,5831.00
2023-06-02T12:09:04.893Z,5843.00
2023-06-02T12:10:04.919Z,5832.00
2023-06-02T12:11:05.135Z,5823.00
2023-06-02T12:12:04.877Z,5805.00
2023-06-02T12:13:04.867Z,5808.00
2023-06-02T12:14:04.883Z,5808.00
2023-06-02T12:15:04.910Z,5795.00
2023-06-02T12:16:04.865Z,5786.00
2023-06-02T12:17:04.850Z,5778.00
2023-06-02T12:18:04.917Z,5775.00
2023-06-02T12:19:04.895Z,5791.00
2023-06-02T12:20:04.813Z,5781.00
2023-06-02T12:21:04.960Z,5786.00
2023-06-02T12:22:06.181Z,5809.00
2023-06-02T12:23:04.788Z,5799.00
2023-06-02T12:24:04.913Z,5790.00
2023-06-02T12:25:04.834Z,5807.00
2023-06-02T12:26:04.744Z,5793.00
2023-06-02T12:27:04.906Z,5799.00
2023-06-02T12:28:04.745Z,5799.00